sensor_id;sensor_type;location;lat;lon;timestamp;P1;durP1;ratioP1;P2;durP2;ratioP2
70838;SDS011;58464;52.298;4.852;2023-05-27T00:01:56;8.93;;;2.40;;
70838;SDS011;58464;52.298;4.852;2023-05-27T00:04:21;15.87;;;3.43;;
70838;SDS011;58464;52.298;4.852;2023-05-27T00:06:47;14.07;;;3.60;;
70838;SDS011;58464;52.298;4.852;2023-05-27T00:09:12;12.32;;;2.72;;
70838;SDS011;58464;52.298;4.852;2023-05-27T00:11:37;15.57;;;3.30;;
70838;SDS011;58464;52.298;4.852;2023-05-27T00:14:03;13.27;;;3.13;;
70838;SDS011;58464;52.298;4.852;2023-05-27T00:16:28;15.15;;;2.92;;
70838;SDS011;58464;52.298;4.852;2023-05-27T00:18:53;17.10;;;3.08;;
70838;SDS011;58464;52.298;4.852;2023-05-27T00:21:19;21.00;;;3.47;;
70838;SDS011;58464;52.298;4.852;2023-05-27T00:23:45;23.33;;;3.65;;
70838;SDS011;58464;52.298;4.852;2023-05-27T00:26:10;11.73;;;2.47;;
70838;SDS011;58464;52.298;4.852;2023-05-27T00:28:36;19.50;;;2.97;;
70838;SDS011;58464;52.298;4.852;2023-05-27T00:31:01;15.80;;;3.33;;
70838;SDS011;58464;52.298;4.852;2023-05-27T00:33:27;19.97;;;3.83;;
70838;SDS011;58464;52.298;4.852;2023-05-27T00:35:52;10.60;;;3.67;;
70838;SDS011;58464;52.298;4.852;2023-05-27T00:38:17;14.33;;;3.77;;
70838;SDS011;58464;52.298;4.852;2023-05-27T00:40:43;20.52;;;3.30;;
70838;SDS011;58464;52.298;4.852;2023-05-27T00:43:08;18.35;;;3.10;;
70838;SDS011;58464;52.298;4.852;2023-05-27T00:45:33;15.60;;;3.07;;
70838;SDS011;58464;52.298;4.852;2023-05-27T00:47:59;13.95;;;3.25;;
70838;SDS011;58464;52.298;4.852;2023-05-27T00:50:26;15.73;;;3.22;;
70838;SDS011;58464;52.298;4.852;2023-05-27T00:52:52;14.55;;;3.20;;
70838;SDS011;58464;52.298;4.852;2023-05-27T00:55:20;13.70;;;3.20;;
70838;SDS011;58464;52.298;4.852;2023-05-27T00:57:45;11.45;;;3.38;;
70838;SDS011;58464;52.298;4.852;2023-05-27T01:00:11;15.80;;;3.60;;
70838;SDS011;58464;52.298;4.852;2023-05-27T01:02:36;17.42;;;3.70;;
70838;SDS011;58464;52.298;4.852;2023-05-27T01:05:05;17.30;;;3.35;;
70838;SDS011;58464;52.298;4.852;2023-05-27T01:12:50;19.00;;;3.97;;
70838;SDS011;58464;52.298;4.852;2023-05-27T01:15:16;19.55;;;2.95;;
70838;SDS011;58464;52.298;4.852;2023-05-27T01:17:42;19.42;;;3.30;;
70838;SDS011;58464;52.298;4.852;2023-05-27T01:20:10;14.60;;;3.35;;
70838;SDS011;58464;52.298;4.852;2023-05-27T01:22:35;17.40;;;4.05;;
70838;SDS011;58464;52.298;4.852;2023-05-27T01:25:01;13.40;;;2.63;;
70838;SDS011;58464;52.298;4.852;2023-05-27T01:27:26;20.03;;;4.53;;
70838;SDS011;58464;52.298;4.852;2023-05-27T01:29:52;16.95;;;3.63;;
70838;SDS011;58464;52.298;4.852;2023-05-27T01:32:21;21.85;;;4.57;;
70838;SDS011;58464;52.298;4.852;2023-05-27T01:37:21;24.50;;;3.25;;
70838;SDS011;58464;52.298;4.852;2023-05-27T01:39:48;15.63;;;3.33;;
70838;SDS011;58464;52.298;4.852;2023-05-27T01:42:14;18.85;;;3.47;;
70838;SDS011;58464;52.298;4.852;2023-05-27T01:44:39;17.00;;;3.03;;
70838;SDS011;58464;52.298;4.852;2023-05-27T01:47:05;14.98;;;3.47;;
70838;SDS011;58464;52.298;4.852;2023-05-27T01:49:30;11.73;;;2.58;;
70838;SDS011;58464;52.298;4.852;2023-05-27T01:51:55;21.90;;;2.92;;
70838;SDS011;58464;52.298;4.852;2023-05-27T01:54:20;12.05;;;3.17;;
70838;SDS011;58464;52.298;4.852;2023-05-27T01:56:46;19.10;;;3.30;;
70838;SDS011;58464;52.298;4.852;2023-05-27T01:59:11;18.83;;;2.88;;
70838;SDS011;58464;52.298;4.852;2023-05-27T02:01:36;14.10;;;2.80;;
70838;SDS011;58464;52.298;4.852;2023-05-27T02:04:01;16.42;;;3.22;;
70838;SDS011;58464;52.298;4.852;2023-05-27T02:06:27;14.30;;;2.65;;
70838;SDS011;58464;52.298;4.852;2023-05-27T02:08:52;28.43;;;3.27;;
70838;SDS011;58464;52.298;4.852;2023-05-27T02:11:17;17.93;;;3.30;;
70838;SDS011;58464;52.298;4.852;2023-05-27T02:13:42;17.97;;;2.80;;
70838;SDS011;58464;52.298;4.852;2023-05-27T02:16:08;22.10;;;3.30;;
70838;SDS011;58464;52.298;4.852;2023-05-27T02:18:33;17.08;;;3.00;;
70838;SDS011;58464;52.298;4.852;2023-05-27T02:20:58;17.88;;;2.92;;
70838;SDS011;58464;52.298;4.852;2023-05-27T02:23:30;24.45;;;3.55;;
70838;SDS011;58464;52.298;4.852;2023-05-27T02:25:55;17.93;;;3.43;;
70838;SDS011;58464;52.298;4.852;2023-05-27T02:28:20;23.33;;;3.20;;
70838;SDS011;58464;52.298;4.852;2023-05-27T02:30:45;10.50;;;2.73;;
70838;SDS011;58464;52.298;4.852;2023-05-27T02:33:11;15.03;;;2.33;;
70838;SDS011;58464;52.298;4.852;2023-05-27T02:35:36;15.07;;;3.53;;
70838;SDS011;58464;52.298;4.852;2023-05-27T02:38:01;14.87;;;3.83;;
70838;SDS011;58464;52.298;4.852;2023-05-27T02:40:26;19.90;;;3.70;;
70838;SDS011;58464;52.298;4.852;2023-05-27T02:42:52;19.02;;;3.15;;
70838;SDS011;58464;52.298;4.852;2023-05-27T02:45:17;13.13;;;3.00;;
70838;SDS011;58464;52.298;4.852;2023-05-27T02:47:43;14.98;;;3.30;;
70838;SDS011;58464;52.298;4.852;2023-05-27T02:50:08;11.25;;;2.85;;
70838;SDS011;58464;52.298;4.852;2023-05-27T02:52:33;15.93;;;3.33;;
70838;SDS011;58464;52.298;4.852;2023-05-27T02:54:59;13.70;;;2.97;;
70838;SDS011;58464;52.298;4.852;2023-05-27T02:57:24;16.10;;;3.47;;
70838;SDS011;58464;52.298;4.852;2023-05-27T02:59:49;12.10;;;3.25;;
70838;SDS011;58464;52.298;4.852;2023-05-27T03:02:14;12.45;;;2.92;;
70838;SDS011;58464;52.298;4.852;2023-05-27T03:04:40;16.83;;;3.42;;
70838;SDS011;58464;52.298;4.852;2023-05-27T03:07:05;17.25;;;3.63;;
70838;SDS011;58464;52.298;4.852;2023-05-27T03:09:32;20.90;;;4.13;;
70838;SDS011;58464;52.298;4.852;2023-05-27T03:11:57;19.27;;;3.55;;
70838;SDS011;58464;52.298;4.852;2023-05-27T03:14:22;21.70;;;4.10;;
70838;SDS011;58464;52.298;4.852;2023-05-27T03:16:48;25.95;;;3.50;;
70838;SDS011;58464;52.298;4.852;2023-05-27T03:19:13;15.87;;;3.23;;
70838;SDS011;58464;52.298;4.852;2023-05-27T03:21:38;15.67;;;2.80;;
70838;SDS011;58464;52.298;4.852;2023-05-27T03:24:03;21.27;;;2.93;;
70838;SDS011;58464;52.298;4.852;2023-05-27T03:26:28;18.57;;;3.30;;
70838;SDS011;58464;52.298;4.852;2023-05-27T03:28:54;19.58;;;3.80;;
70838;SDS011;58464;52.298;4.852;2023-05-27T03:31:19;15.68;;;3.13;;
70838;SDS011;58464;52.298;4.852;2023-05-27T03:33:45;14.97;;;2.80;;
70838;SDS011;58464;52.298;4.852;2023-05-27T03:36:10;17.27;;;3.20;;
70838;SDS011;58464;52.298;4.852;2023-05-27T03:38:35;22.80;;;3.83;;
70838;SDS011;58464;52.298;4.852;2023-05-27T03:41:00;18.20;;;2.53;;
70838;SDS011;58464;52.298;4.852;2023-05-27T03:43:25;20.65;;;3.83;;
70838;SDS011;58464;52.298;4.852;2023-05-27T03:45:51;13.82;;;3.05;;
70838;SDS011;58464;52.298;4.852;2023-05-27T03:48:16;18.10;;;3.33;;
70838;SDS011;58464;52.298;4.852;2023-05-27T03:50:42;24.23;;;3.47;;
70838;SDS011;58464;52.298;4.852;2023-05-27T03:53:07;16.37;;;3.40;;
70838;SDS011;58464;52.298;4.852;2023-05-27T03:55:32;28.60;;;3.60;;
70838;SDS011;58464;52.298;4.852;2023-05-27T03:57:57;11.03;;;2.67;;
70838;SDS011;58464;52.298;4.852;2023-05-27T04:00:22;12.67;;;2.83;;
70838;SDS011;58464;52.298;4.852;2023-05-27T04:02:48;18.40;;;3.10;;
70838;SDS011;58464;52.298;4.852;2023-05-27T04:05:13;23.08;;;3.25;;
70838;SDS011;58464;52.298;4.852;2023-05-27T04:07:41;17.73;;;3.55;;
70838;SDS011;58464;52.298;4.852;2023-05-27T04:10:06;21.87;;;3.20;;
70838;SDS011;58464;52.298;4.852;2023-05-27T04:12:32;8.73;;;1.90;;
70838;SDS011;58464;52.298;4.852;2023-05-27T04:14:57;14.90;;;3.57;;
70838;SDS011;58464;52.298;4.852;2023-05-27T04:17:22;14.10;;;4.05;;
70838;SDS011;58464;52.298;4.852;2023-05-27T04:19:48;16.02;;;2.72;;
70838;SDS011;58464;52.298;4.852;2023-05-27T04:22:14;19.55;;;4.25;;
70838;SDS011;58464;52.298;4.852;2023-05-27T04:24:39;13.98;;;3.25;;
70838;SDS011;58464;52.298;4.852;2023-05-27T04:27:05;19.83;;;3.63;;
70838;SDS011;58464;52.298;4.852;2023-05-27T04:29:31;24.08;;;3.80;;
70838;SDS011;58464;52.298;4.852;2023-05-27T04:31:57;19.13;;;3.50;;
70838;SDS011;58464;52.298;4.852;2023-05-27T04:34:22;14.60;;;3.63;;
70838;SDS011;58464;52.298;4.852;2023-05-27T04:36:47;16.27;;;3.83;;
70838;SDS011;58464;52.298;4.852;2023-05-27T04:39:14;13.90;;;3.20;;
70838;SDS011;58464;52.298;4.852;2023-05-27T04:41:40;25.00;;;3.30;;
70838;SDS011;58464;52.298;4.852;2023-05-27T04:44:06;19.10;;;3.25;;
70838;SDS011;58464;52.298;4.852;2023-05-27T04:46:32;19.85;;;4.43;;
70838;SDS011;58464;52.298;4.852;2023-05-27T04:48:58;15.88;;;3.55;;
70838;SDS011;58464;52.298;4.852;2023-05-27T04:51:23;23.55;;;2.90;;
70838;SDS011;58464;52.298;4.852;2023-05-27T04:53:48;17.93;;;3.07;;
70838;SDS011;58464;52.298;4.852;2023-05-27T04:56:14;15.50;;;2.97;;
70838;SDS011;58464;52.298;4.852;2023-05-27T04:58:42;13.57;;;2.72;;
70838;SDS011;58464;52.298;4.852;2023-05-27T05:01:08;25.20;;;4.53;;
70838;SDS011;58464;52.298;4.852;2023-05-27T05:03:42;20.70;;;3.03;;
70838;SDS011;58464;52.298;4.852;2023-05-27T05:06:16;24.85;;;4.38;;
70838;SDS011;58464;52.298;4.852;2023-05-27T05:08:42;20.77;;;3.70;;
70838;SDS011;58464;52.298;4.852;2023-05-27T05:11:07;19.90;;;4.50;;
70838;SDS011;58464;52.298;4.852;2023-05-27T05:13:32;18.25;;;3.28;;
70838;SDS011;58464;52.298;4.852;2023-05-27T05:15:58;12.97;;;3.00;;
70838;SDS011;58464;52.298;4.852;2023-05-27T05:18:23;20.37;;;3.23;;
70838;SDS011;58464;52.298;4.852;2023-05-27T05:20:48;26.53;;;4.67;;
70838;SDS011;58464;52.298;4.852;2023-05-27T05:23:13;15.77;;;3.87;;
70838;SDS011;58464;52.298;4.852;2023-05-27T05:25:38;21.57;;;3.10;;
70838;SDS011;58464;52.298;4.852;2023-05-27T05:28:04;20.83;;;4.22;;
70838;SDS011;58464;52.298;4.852;2023-05-27T05:30:30;18.75;;;3.03;;
70838;SDS011;58464;52.298;4.852;2023-05-27T05:32:56;22.88;;;4.40;;
70838;SDS011;58464;52.298;4.852;2023-05-27T05:35:21;17.80;;;3.70;;
70838;SDS011;58464;52.298;4.852;2023-05-27T05:37:46;28.50;;;4.80;;
70838;SDS011;58464;52.298;4.852;2023-05-27T05:40:12;39.97;;;5.20;;
70838;SDS011;58464;52.298;4.852;2023-05-27T05:42:37;17.00;;;3.23;;
70838;SDS011;58464;52.298;4.852;2023-05-27T05:45:03;23.30;;;4.40;;
70838;SDS011;58464;52.298;4.852;2023-05-27T05:47:28;12.60;;;3.03;;
70838;SDS011;58464;52.298;4.852;2023-05-27T05:49:53;16.80;;;3.50;;
70838;SDS011;58464;52.298;4.852;2023-05-27T05:52:19;24.37;;;4.47;;
70838;SDS011;58464;52.298;4.852;2023-05-27T05:54:44;19.90;;;4.30;;
70838;SDS011;58464;52.298;4.852;2023-05-27T05:57:09;13.43;;;3.30;;
70838;SDS011;58464;52.298;4.852;2023-05-27T05:59:35;15.23;;;3.30;;
70838;SDS011;58464;52.298;4.852;2023-05-27T06:02:00;14.40;;;3.50;;
70838;SDS011;58464;52.298;4.852;2023-05-27T06:04:25;17.83;;;4.20;;
70838;SDS011;58464;52.298;4.852;2023-05-27T06:06:50;18.92;;;3.80;;
70838;SDS011;58464;52.298;4.852;2023-05-27T06:09:16;21.88;;;4.47;;
70838;SDS011;58464;52.298;4.852;2023-05-27T06:11:41;16.23;;;3.43;;
70838;SDS011;58464;52.298;4.852;2023-05-27T06:14:06;23.48;;;3.45;;
70838;SDS011;58464;52.298;4.852;2023-05-27T06:16:32;19.00;;;3.70;;
70838;SDS011;58464;52.298;4.852;2023-05-27T06:18:58;16.85;;;3.60;;
70838;SDS011;58464;52.298;4.852;2023-05-27T06:21:23;17.63;;;3.27;;
70838;SDS011;58464;52.298;4.852;2023-05-27T06:23:48;17.03;;;3.97;;
70838;SDS011;58464;52.298;4.852;2023-05-27T06:26:14;21.03;;;3.97;;
70838;SDS011;58464;52.298;4.852;2023-05-27T06:28:39;18.13;;;3.80;;
70838;SDS011;58464;52.298;4.852;2023-05-27T06:31:04;19.97;;;3.63;;
70838;SDS011;58464;52.298;4.852;2023-05-27T06:33:30;13.57;;;3.20;;
70838;SDS011;58464;52.298;4.852;2023-05-27T06:35:55;16.37;;;3.10;;
70838;SDS011;58464;52.298;4.852;2023-05-27T06:38:20;19.00;;;4.37;;
70838;SDS011;58464;52.298;4.852;2023-05-27T06:40:45;16.13;;;3.70;;
70838;SDS011;58464;52.298;4.852;2023-05-27T06:43:11;19.80;;;4.18;;
70838;SDS011;58464;52.298;4.852;2023-05-27T06:45:36;18.37;;;3.63;;
70838;SDS011;58464;52.298;4.852;2023-05-27T06:48:01;19.67;;;3.53;;
70838;SDS011;58464;52.298;4.852;2023-05-27T06:50:26;14.93;;;3.90;;
70838;SDS011;58464;52.298;4.852;2023-05-27T06:52:52;19.70;;;3.80;;
70838;SDS011;58464;52.298;4.852;2023-05-27T06:55:17;20.30;;;3.63;;
70838;SDS011;58464;52.298;4.852;2023-05-27T06:57:43;17.38;;;4.13;;
70838;SDS011;58464;52.298;4.852;2023-05-27T07:00:08;21.37;;;3.50;;
70838;SDS011;58464;52.298;4.852;2023-05-27T07:02:33;19.88;;;3.67;;
70838;SDS011;58464;52.298;4.852;2023-05-27T07:04:59;23.17;;;4.22;;
70838;SDS011;58464;52.298;4.852;2023-05-27T07:07:24;25.98;;;4.00;;
70838;SDS011;58464;52.298;4.852;2023-05-27T07:09:50;18.73;;;4.10;;
70838;SDS011;58464;52.298;4.852;2023-05-27T07:12:15;16.52;;;3.90;;
70838;SDS011;58464;52.298;4.852;2023-05-27T07:14:40;19.38;;;3.35;;
70838;SDS011;58464;52.298;4.852;2023-05-27T07:17:06;16.02;;;4.07;;
70838;SDS011;58464;52.298;4.852;2023-05-27T07:19:31;15.52;;;3.63;;
70838;SDS011;58464;52.298;4.852;2023-05-27T07:21:56;13.17;;;3.50;;
70838;SDS011;58464;52.298;4.852;2023-05-27T07:24:22;19.23;;;2.92;;
70838;SDS011;58464;52.298;4.852;2023-05-27T07:26:47;19.55;;;3.60;;
70838;SDS011;58464;52.298;4.852;2023-05-27T07:29:13;23.48;;;4.38;;
70838;SDS011;58464;52.298;4.852;2023-05-27T07:31:38;13.83;;;3.43;;
70838;SDS011;58464;52.298;4.852;2023-05-27T07:34:03;19.70;;;3.80;;
70838;SDS011;58464;52.298;4.852;2023-05-27T07:36:28;15.40;;;3.57;;
70838;SDS011;58464;52.298;4.852;2023-05-27T07:38:53;17.07;;;3.63;;
70838;SDS011;58464;52.298;4.852;2023-05-27T07:41:19;20.88;;;4.22;;
70838;SDS011;58464;52.298;4.852;2023-05-27T07:43:45;15.68;;;3.80;;
70838;SDS011;58464;52.298;4.852;2023-05-27T07:46:10;19.73;;;3.90;;
70838;SDS011;58464;52.298;4.852;2023-05-27T07:48:35;23.83;;;5.40;;
70838;SDS011;58464;52.298;4.852;2023-05-27T07:51:00;20.35;;;3.75;;
70838;SDS011;58464;52.298;4.852;2023-05-27T07:53:26;16.50;;;3.73;;
70838;SDS011;58464;52.298;4.852;2023-05-27T07:55:51;19.27;;;4.30;;
70838;SDS011;58464;52.298;4.852;2023-05-27T07:58:16;19.87;;;3.97;;
70838;SDS011;58464;52.298;4.852;2023-05-27T08:00:41;15.67;;;3.87;;
70838;SDS011;58464;52.298;4.852;2023-05-27T08:03:06;17.93;;;4.40;;
70838;SDS011;58464;52.298;4.852;2023-05-27T08:05:32;15.23;;;3.15;;
70838;SDS011;58464;52.298;4.852;2023-05-27T08:07:57;22.10;;;4.15;;
70838;SDS011;58464;52.298;4.852;2023-05-27T08:10:22;17.33;;;4.32;;
70838;SDS011;58464;52.298;4.852;2023-05-27T08:12:48;19.58;;;4.20;;
70838;SDS011;58464;52.298;4.852;2023-05-27T08:15:13;14.17;;;4.30;;
70838;SDS011;58464;52.298;4.852;2023-05-27T08:17:38;17.45;;;4.70;;
70838;SDS011;58464;52.298;4.852;2023-05-27T08:20:04;17.45;;;3.95;;
70838;SDS011;58464;52.298;4.852;2023-05-27T08:22:31;15.55;;;3.63;;
70838;SDS011;58464;52.298;4.852;2023-05-27T08:24:56;20.53;;;3.57;;
70838;SDS011;58464;52.298;4.852;2023-05-27T08:27:41;12.33;;;3.20;;
70838;SDS011;58464;52.298;4.852;2023-05-27T08:30:08;15.90;;;3.63;;
70838;SDS011;58464;52.298;4.852;2023-05-27T08:32:33;23.85;;;4.43;;
70838;SDS011;58464;52.298;4.852;2023-05-27T08:34:58;22.03;;;4.23;;
70838;SDS011;58464;52.298;4.852;2023-05-27T08:37:24;16.35;;;4.53;;
70838;SDS011;58464;52.298;4.852;2023-05-27T08:39:50;25.88;;;4.15;;
70838;SDS011;58464;52.298;4.852;2023-05-27T08:42:15;23.60;;;6.80;;
70838;SDS011;58464;52.298;4.852;2023-05-27T08:44:40;24.60;;;4.17;;
70838;SDS011;58464;52.298;4.852;2023-05-27T08:47:05;13.57;;;4.03;;
70838;SDS011;58464;52.298;4.852;2023-05-27T08:49:32;23.50;;;5.35;;
70838;SDS011;58464;52.298;4.852;2023-05-27T08:51:58;28.40;;;5.38;;
70838;SDS011;58464;52.298;4.852;2023-05-27T08:54:25;14.77;;;2.90;;
70838;SDS011;58464;52.298;4.852;2023-05-27T08:56:51;12.10;;;3.53;;
70838;SDS011;58464;52.298;4.852;2023-05-27T08:59:18;15.32;;;3.25;;
70838;SDS011;58464;52.298;4.852;2023-05-27T09:01:43;24.92;;;6.05;;
70838;SDS011;58464;52.298;4.852;2023-05-27T09:04:09;26.85;;;5.25;;
70838;SDS011;58464;52.298;4.852;2023-05-27T09:06:35;24.10;;;4.45;;
70838;SDS011;58464;52.298;4.852;2023-05-27T09:09:00;15.47;;;4.10;;
70838;SDS011;58464;52.298;4.852;2023-05-27T09:11:26;20.37;;;4.60;;
70838;SDS011;58464;52.298;4.852;2023-05-27T09:13:54;19.45;;;4.63;;
70838;SDS011;58464;52.298;4.852;2023-05-27T09:16:23;18.50;;;4.68;;
70838;SDS011;58464;52.298;4.852;2023-05-27T09:18:48;23.15;;;4.57;;
70838;SDS011;58464;52.298;4.852;2023-05-27T09:21:13;17.38;;;4.72;;
70838;SDS011;58464;52.298;4.852;2023-05-27T09:23:39;10.23;;;3.05;;
70838;SDS011;58464;52.298;4.852;2023-05-27T09:26:08;18.33;;;4.22;;
70838;SDS011;58464;52.298;4.852;2023-05-27T09:28:34;21.33;;;4.30;;
70838;SDS011;58464;52.298;4.852;2023-05-27T09:31:00;17.05;;;4.20;;
70838;SDS011;58464;52.298;4.852;2023-05-27T09:33:29;13.82;;;2.83;;
70838;SDS011;58464;52.298;4.852;2023-05-27T09:35:55;20.63;;;4.20;;
70838;SDS011;58464;52.298;4.852;2023-05-27T09:38:20;23.13;;;4.05;;
70838;SDS011;58464;52.298;4.852;2023-05-27T09:40:46;20.10;;;4.67;;
70838;SDS011;58464;52.298;4.852;2023-05-27T09:43:13;20.52;;;4.10;;
70838;SDS011;58464;52.298;4.852;2023-05-27T09:45:39;23.58;;;4.18;;
70838;SDS011;58464;52.298;4.852;2023-05-27T09:48:05;15.85;;;4.32;;
70838;SDS011;58464;52.298;4.852;2023-05-27T09:50:33;31.00;;;4.60;;
70838;SDS011;58464;52.298;4.852;2023-05-27T09:52:59;18.77;;;4.57;;
70838;SDS011;58464;52.298;4.852;2023-05-27T09:55:25;18.67;;;4.15;;
70838;SDS011;58464;52.298;4.852;2023-05-27T09:57:50;22.98;;;4.95;;
70838;SDS011;58464;52.298;4.852;2023-05-27T10:00:16;23.33;;;5.07;;
70838;SDS011;58464;52.298;4.852;2023-05-27T10:02:46;19.83;;;4.68;;
70838;SDS011;58464;52.298;4.852;2023-05-27T10:05:12;23.40;;;4.45;;
70838;SDS011;58464;52.298;4.852;2023-05-27T10:07:38;21.65;;;5.28;;
70838;SDS011;58464;52.298;4.852;2023-05-27T10:10:08;17.85;;;4.13;;
70838;SDS011;58464;52.298;4.852;2023-05-27T10:12:35;22.02;;;5.07;;
70838;SDS011;58464;52.298;4.852;2023-05-27T10:15:01;21.63;;;4.82;;
70838;SDS011;58464;52.298;4.852;2023-05-27T10:17:27;20.02;;;4.63;;
70838;SDS011;58464;52.298;4.852;2023-05-27T10:19:55;24.13;;;5.07;;
70838;SDS011;58464;52.298;4.852;2023-05-27T10:22:21;18.75;;;3.90;;
70838;SDS011;58464;52.298;4.852;2023-05-27T10:24:47;18.20;;;4.68;;
70838;SDS011;58464;52.298;4.852;2023-05-27T10:27:13;26.27;;;5.47;;
70838;SDS011;58464;52.298;4.852;2023-05-27T10:29:39;17.90;;;4.72;;
70838;SDS011;58464;52.298;4.852;2023-05-27T10:32:05;15.93;;;4.28;;
70838;SDS011;58464;52.298;4.852;2023-05-27T10:34:34;20.83;;;4.80;;
70838;SDS011;58464;52.298;4.852;2023-05-27T10:36:59;20.60;;;5.10;;
70838;SDS011;58464;52.298;4.852;2023-05-27T10:39:28;21.90;;;5.13;;
70838;SDS011;58464;52.298;4.852;2023-05-27T10:41:55;18.55;;;5.05;;
70838;SDS011;58464;52.298;4.852;2023-05-27T10:44:35;16.63;;;5.47;;
70838;SDS011;58464;52.298;4.852;2023-05-27T10:47:11;23.42;;;5.38;;
70838;SDS011;58464;52.298;4.852;2023-05-27T10:49:37;20.95;;;5.13;;
70838;SDS011;58464;52.298;4.852;2023-05-27T10:52:16;22.73;;;4.85;;
70838;SDS011;58464;52.298;4.852;2023-05-27T10:54:42;20.77;;;4.40;;
70838;SDS011;58464;52.298;4.852;2023-05-27T10:57:08;19.27;;;5.50;;
70838;SDS011;58464;52.298;4.852;2023-05-27T10:59:38;17.48;;;4.75;;
70838;SDS011;58464;52.298;4.852;2023-05-27T11:02:04;17.92;;;5.10;;
70838;SDS011;58464;52.298;4.852;2023-05-27T11:04:34;15.95;;;4.28;;
70838;SDS011;58464;52.298;4.852;2023-05-27T11:06:59;14.38;;;4.65;;
70838;SDS011;58464;52.298;4.852;2023-05-27T11:09:25;7.88;;;2.53;;
70838;SDS011;58464;52.298;4.852;2023-05-27T11:11:50;16.40;;;5.20;;
70838;SDS011;58464;52.298;4.852;2023-05-27T11:14:15;18.47;;;4.83;;
70838;SDS011;58464;52.298;4.852;2023-05-27T11:16:45;22.10;;;6.60;;
70838;SDS011;58464;52.298;4.852;2023-05-27T11:19:11;19.73;;;4.70;;
70838;SDS011;58464;52.298;4.852;2023-05-27T11:21:43;21.45;;;4.80;;
70838;SDS011;58464;52.298;4.852;2023-05-27T11:24:13;24.02;;;5.60;;
70838;SDS011;58464;52.298;4.852;2023-05-27T11:26:41;15.40;;;4.72;;
70838;SDS011;58464;52.298;4.852;2023-05-27T11:29:07;18.13;;;4.63;;
70838;SDS011;58464;52.298;4.852;2023-05-27T11:31:32;17.08;;;4.65;;
70838;SDS011;58464;52.298;4.852;2023-05-27T11:33:58;14.20;;;4.25;;
70838;SDS011;58464;52.298;4.852;2023-05-27T11:36:26;21.38;;;5.80;;
70838;SDS011;58464;52.298;4.852;2023-05-27T11:38:57;26.40;;;5.18;;
70838;SDS011;58464;52.298;4.852;2023-05-27T11:41:24;19.10;;;5.63;;
70838;SDS011;58464;52.298;4.852;2023-05-27T11:44:05;18.52;;;5.03;;
70838;SDS011;58464;52.298;4.852;2023-05-27T11:46:37;15.45;;;4.70;;
70838;SDS011;58464;52.298;4.852;2023-05-27T11:49:06;19.60;;;4.78;;
70838;SDS011;58464;52.298;4.852;2023-05-27T11:51:36;27.17;;;5.30;;
70838;SDS011;58464;52.298;4.852;2023-05-27T11:54:02;17.52;;;5.07;;
70838;SDS011;58464;52.298;4.852;2023-05-27T11:56:27;18.73;;;4.93;;
70838;SDS011;58464;52.298;4.852;2023-05-27T11:58:54;21.73;;;5.53;;
70838;SDS011;58464;52.298;4.852;2023-05-27T12:01:19;17.88;;;4.40;;
70838;SDS011;58464;52.298;4.852;2023-05-27T12:03:45;18.70;;;4.90;;
70838;SDS011;58464;52.298;4.852;2023-05-27T12:06:10;16.55;;;5.00;;
70838;SDS011;58464;52.298;4.852;2023-05-27T12:08:35;21.50;;;6.20;;
70838;SDS011;58464;52.298;4.852;2023-05-27T12:11:01;16.42;;;3.47;;
70838;SDS011;58464;52.298;4.852;2023-05-27T12:13:26;16.27;;;5.40;;
70838;SDS011;58464;52.298;4.852;2023-05-27T12:15:53;19.35;;;4.90;;
70838;SDS011;58464;52.298;4.852;2023-05-27T12:18:19;33.28;;;6.07;;
70838;SDS011;58464;52.298;4.852;2023-05-27T12:20:44;17.63;;;5.65;;
70838;SDS011;58464;52.298;4.852;2023-05-27T12:23:11;18.13;;;5.10;;
70838;SDS011;58464;52.298;4.852;2023-05-27T12:25:37;28.15;;;5.15;;
70838;SDS011;58464;52.298;4.852;2023-05-27T12:28:02;18.02;;;5.40;;
70838;SDS011;58464;52.298;4.852;2023-05-27T12:30:28;16.90;;;5.27;;
70838;SDS011;58464;52.298;4.852;2023-05-27T12:32:53;18.13;;;5.35;;
70838;SDS011;58464;52.298;4.852;2023-05-27T12:35:19;21.13;;;5.55;;
70838;SDS011;58464;52.298;4.852;2023-05-27T12:37:45;22.65;;;5.18;;
70838;SDS011;58464;52.298;4.852;2023-05-27T12:40:10;19.35;;;4.63;;
70838;SDS011;58464;52.298;4.852;2023-05-27T12:42:39;16.98;;;5.20;;
70838;SDS011;58464;52.298;4.852;2023-05-27T12:45:04;21.55;;;5.15;;
70838;SDS011;58464;52.298;4.852;2023-05-27T12:47:30;18.88;;;5.00;;
70838;SDS011;58464;52.298;4.852;2023-05-27T12:49:55;15.33;;;4.87;;
70838;SDS011;58464;52.298;4.852;2023-05-27T12:52:20;15.77;;;4.87;;
70838;SDS011;58464;52.298;4.852;2023-05-27T12:54:45;25.00;;;6.03;;
70838;SDS011;58464;52.298;4.852;2023-05-27T12:57:11;24.02;;;5.25;;
70838;SDS011;58464;52.298;4.852;2023-05-27T12:59:37;19.87;;;5.00;;
70838;SDS011;58464;52.298;4.852;2023-05-27T13:02:02;19.70;;;4.35;;
70838;SDS011;58464;52.298;4.852;2023-05-27T13:04:28;22.30;;;5.20;;
70838;SDS011;58464;52.298;4.852;2023-05-27T13:06:53;17.50;;;4.57;;
70838;SDS011;58464;52.298;4.852;2023-05-27T13:09:18;20.42;;;9.68;;
70838;SDS011;58464;52.298;4.852;2023-05-27T13:11:43;28.77;;;6.77;;
70838;SDS011;58464;52.298;4.852;2023-05-27T13:14:09;17.15;;;5.22;;
70838;SDS011;58464;52.298;4.852;2023-05-27T13:16:34;18.80;;;5.23;;
70838;SDS011;58464;52.298;4.852;2023-05-27T13:18:59;16.00;;;4.55;;
70838;SDS011;58464;52.298;4.852;2023-05-27T13:21:25;15.88;;;5.00;;
70838;SDS011;58464;52.298;4.852;2023-05-27T13:23:51;20.45;;;5.25;;
70838;SDS011;58464;52.298;4.852;2023-05-27T13:26:16;19.80;;;4.63;;
70838;SDS011;58464;52.298;4.852;2023-05-27T13:28:42;24.97;;;5.87;;
70838;SDS011;58464;52.298;4.852;2023-05-27T13:31:07;16.97;;;4.20;;
70838;SDS011;58464;52.298;4.852;2023-05-27T13:33:32;20.92;;;5.95;;
70838;SDS011;58464;52.298;4.852;2023-05-27T13:35:58;23.33;;;6.00;;
70838;SDS011;58464;52.298;4.852;2023-05-27T13:38:23;19.60;;;5.97;;
70838;SDS011;58464;52.298;4.852;2023-05-27T13:40:48;19.20;;;5.57;;
70838;SDS011;58464;52.298;4.852;2023-05-27T13:43:15;19.55;;;5.95;;
70838;SDS011;58464;52.298;4.852;2023-05-27T13:45:41;22.10;;;5.88;;
70838;SDS011;58464;52.298;4.852;2023-05-27T13:48:06;21.73;;;5.57;;
70838;SDS011;58464;52.298;4.852;2023-05-27T13:50:31;16.00;;;5.57;;
70838;SDS011;58464;52.298;4.852;2023-05-27T13:52:57;12.60;;;3.67;;
70838;SDS011;58464;52.298;4.852;2023-05-27T13:55:22;23.42;;;6.10;;
70838;SDS011;58464;52.298;4.852;2023-05-27T13:57:48;17.20;;;5.33;;
70838;SDS011;58464;52.298;4.852;2023-05-27T14:00:13;19.80;;;5.60;;
70838;SDS011;58464;52.298;4.852;2023-05-27T14:02:40;23.23;;;5.38;;
70838;SDS011;58464;52.298;4.852;2023-05-27T14:05:05;21.43;;;5.70;;
70838;SDS011;58464;52.298;4.852;2023-05-27T14:07:31;20.17;;;5.60;;
70838;SDS011;58464;52.298;4.852;2023-05-27T14:09:57;19.13;;;4.93;;
70838;SDS011;58464;52.298;4.852;2023-05-27T14:12:22;20.77;;;3.00;;
70838;SDS011;58464;52.298;4.852;2023-05-27T14:14:47;20.10;;;5.10;;
70838;SDS011;58464;52.298;4.852;2023-05-27T14:17:12;11.80;;;5.13;;
70838;SDS011;58464;52.298;4.852;2023-05-27T14:19:38;22.55;;;6.10;;
70838;SDS011;58464;52.298;4.852;2023-05-27T14:22:03;22.90;;;5.43;;
70838;SDS011;58464;52.298;4.852;2023-05-27T14:24:28;24.63;;;5.13;;
70838;SDS011;58464;52.298;4.852;2023-05-27T14:26:55;19.30;;;5.13;;
70838;SDS011;58464;52.298;4.852;2023-05-27T14:29:21;21.25;;;4.45;;
70838;SDS011;58464;52.298;4.852;2023-05-27T14:31:46;18.40;;;5.50;;
70838;SDS011;58464;52.298;4.852;2023-05-27T14:34:11;13.15;;;4.68;;
70838;SDS011;58464;52.298;4.852;2023-05-27T14:36:36;27.53;;;6.00;;